Time;durP1;ratioP1;P1;durP2;ratioP2;P2;SDS_P1;SDS_P2;PMS_P1;PMS_P2;Temp;Humidity;BMP_temperature;BMP_pressure;BME280_temperature;BME280_humidity;BME280_pressure;Samples;Min_cycle;Max_cycle;Signal;HPM_P1;HPM_P2
2023/09/11 00:00:29;;;;;;;0.95;0.65;;;22.60;99.90;;;;;;5122290;27;20054;-69
2023/09/11 00:02:54;;;;;;;1.25;0.80;;;22.70;99.90;;;;;;5124435;27;20531;-69
2023/09/11 00:05:20;;;;;;;0.40;0.40;;;22.60;99.90;;;;;;5125708;27;20050;-68
2023/09/11 00:07:45;;;;;;;1.00;1.00;;;22.60;99.90;;;;;;5108384;27;20066;-68
2023/09/11 00:10:11;;;;;;;2.47;1.30;;;22.50;99.90;;;;;;5126427;27;20114;-69
2023/09/11 00:12:37;;;;;;;3.33;1.42;;;22.50;99.90;;;;;;5121585;27;20112;-68
2023/09/11 00:15:03;;;;;;;14.40;1.48;;;22.50;99.90;;;;;;5125372;27;20043;-68
2023/09/11 00:17:29;;;;;;;6.00;1.15;;;22.50;99.90;;;;;;5122652;27;20043;-68
2023/09/11 00:19:55;;;;;;;1.88;1.77;;;22.50;99.90;;;;;;5122980;27;20058;-68
2023/09/11 00:22:21;;;;;;;0.50;0.50;;;22.40;99.90;;;;;;5123572;27;20051;-69
2023/09/11 00:24:47;;;;;;;0.75;0.75;;;22.50;99.90;;;;;;5124464;27;20058;-68
2023/09/11 00:27:12;;;;;;;0.73;0.73;;;22.40;99.90;;;;;;5122074;27;20048;-69
2023/09/11 00:29:38;;;;;;;0.85;0.85;;;22.40;99.90;;;;;;5121971;27;20043;-68
2023/09/11 00:32:04;;;;;;;1.40;0.88;;;22.40;99.90;;;;;;5121974;27;20043;-68
2023/09/11 00:34:30;;;;;;;0.13;0.13;;;22.40;99.90;;;;;;5128402;27;20487;-69
2023/09/11 00:36:57;;;;;;;5.60;0.82;;;22.30;99.90;;;;;;5117403;27;20032;-68
2023/09/11 00:39:23;;;;;;;15.40;1.95;;;22.30;99.90;;;;;;5124400;27;20040;-68
2023/09/11 00:41:48;;;;;;;2.78;1.83;;;22.40;99.90;;;;;;5127090;27;20398;-68
2023/09/11 00:44:14;;;;;;;0.05;0.05;;;22.30;99.90;;;;;;5124437;27;20046;-69
2023/09/11 00:46:40;;;;;;;1.65;1.13;;;22.30;99.90;;;;;;5122075;27;20050;-68
2023/09/11 00:49:07;;;;;;;0.28;0.28;;;22.30;99.90;;;;;;5118875;27;20086;-68
2023/09/11 00:51:34;;;;;;;1.23;1.13;;;22.30;99.90;;;;;;5126121;27;20096;-68
2023/09/11 00:54:00;;;;;;;0.47;0.35;;;22.30;99.90;;;;;;5121827;27;20039;-69
2023/09/11 00:56:26;;;;;;;0.65;0.65;;;22.30;99.90;;;;;;5121231;27;20501;-68
2023/09/11 00:58:52;;;;;;;33.47;2.25;;;22.20;99.90;;;;;;5127559;27;20031;-69
2023/09/11 01:01:21;;;;;;;2.03;1.13;;;22.20;99.90;;;;;;5121830;27;20130;-68
2023/09/11 01:03:47;;;;;;;2.20;0.75;;;22.10;99.90;;;;;;5121742;27;20129;-68
2023/09/11 01:06:13;;;;;;;0.20;0.20;;;22.20;99.90;;;;;;5121733;27;20123;-69
2023/09/11 01:08:39;;;;;;;0.63;0.63;;;22.10;99.90;;;;;;5101320;28;20044;-68
2023/09/11 01:11:04;;;;;;;0.75;0.75;;;22.20;99.90;;;;;;5106939;28;20043;-68
2023/09/11 01:13:30;;;;;;;0.45;0.43;;;22.10;99.90;;;;;;5113127;27;20035;-68
2023/09/11 01:16:18;;;;;;;3.83;1.65;;;22.10;99.90;;;;;;5120498;27;20047;-68
2023/09/11 01:18:58;;;;;;;0.28;0.28;;;22.00;99.90;;;;;;5126267;27;20046;-69
2023/09/11 01:21:36;;;;;;;0.55;0.52;;;22.00;99.90;;;;;;5121042;27;20059;-69
2023/09/11 01:24:27;;;;;;;2.33;2.13;;;22.00;99.90;;;;;;5102376;27;20451;-68
2023/09/11 01:27:16;;;;;;;1.17;0.90;;;22.00;99.90;;;;;;5123029;27;20055;-68
2023/09/11 01:29:43;;;;;;;1.65;1.00;;;22.00;99.90;;;;;;5121084;27;20047;-68
2023/09/11 01:32:10;;;;;;;2.42;2.22;;;22.00;99.90;;;;;;5124147;27;20039;-68
2023/09/11 01:34:36;;;;;;;0.57;0.57;;;22.00;99.90;;;;;;5110764;28;20046;-68
2023/09/11 01:37:02;;;;;;;0.38;0.38;;;22.00;99.90;;;;;;5124593;27;20057;-68
2023/09/11 01:39:29;;;;;;;1.20;1.10;;;22.00;99.90;;;;;;5120084;27;20548;-68
2023/09/11 01:42:00;;;;;;;0.80;0.60;;;22.00;99.90;;;;;;5115165;27;20039;-69
2023/09/11 01:44:39;;;;;;;4.63;3.70;;;22.00;99.90;;;;;;5125408;27;20035;-68
2023/09/11 01:47:05;;;;;;;0.40;0.40;;;21.90;99.90;;;;;;5125912;27;20186;-68
2023/09/11 01:49:32;;;;;;;1.00;0.90;;;21.90;99.90;;;;;;5115600;27;20032;-68
2023/09/11 01:51:58;;;;;;;0.75;0.70;;;21.90;99.90;;;;;;5105192;28;20050;-69
2023/09/11 01:54:25;;;;;;;0.75;0.47;;;21.80;99.90;;;;;;5104827;28;20394;-68
2023/09/11 01:56:50;;;;;;;0.25;0.25;;;21.80;99.90;;;;;;5122260;27;20035;-68
2023/09/11 01:59:16;;;;;;;1.45;0.55;;;21.80;99.90;;;;;;5119940;28;20512;-69
2023/09/11 02:01:45;;;;;;;1.70;1.60;;;21.80;99.90;;;;;;5122831;28;20036;-68
2023/09/11 02:04:10;;;;;;;0.60;0.38;;;21.80;99.90;;;;;;5116654;28;20487;-68
2023/09/11 02:06:36;;;;;;;2.13;1.63;;;21.80;99.90;;;;;;5101934;28;20053;-68
2023/09/11 02:09:02;;;;;;;0.50;0.50;;;21.80;99.90;;;;;;5120695;28;20100;-68
2023/09/11 02:11:28;;;;;;;0.75;0.75;;;21.80;99.90;;;;;;5126171;28;20051;-68
2023/09/11 02:13:54;;;;;;;0.30;0.30;;;21.70;99.90;;;;;;5121180;28;20050;-68
2023/09/11 02:16:19;;;;;;;0.35;0.35;;;21.70;99.90;;;;;;5099597;28;20401;-68
2023/09/11 02:18:45;;;;;;;0.50;0.50;;;21.70;99.90;;;;;;5119085;28;20059;-68
2023/09/11 02:21:11;;;;;;;0.25;0.25;;;21.70;99.90;;;;;;5126828;27;20398;-68
2023/09/11 02:23:36;;;;;;;5.78;2.85;;;21.70;99.90;;;;;;5124224;27;20040;-69
2023/09/11 02:26:02;;;;;;;4.47;1.48;;;21.70;99.90;;;;;;5124411;27;20040;-69
2023/09/11 02:28:28;;;;;;;0.25;0.25;;;21.70;99.90;;;;;;5121906;27;20031;-69
2023/09/11 02:30:54;;;;;;;0.85;0.75;;;21.70;99.90;;;;;;5128250;27;20393;-68
2023/09/11 02:33:19;;;;;;;5.47;0.50;;;21.70;99.90;;;;;;5119021;27;20051;-68
2023/09/11 02:35:51;;;;;;;0.10;0.10;;;21.70;99.90;;;;;;5124568;27;20047;-68
2023/09/11 02:38:16;;;;;;;0.32;0.32;;;21.70;99.90;;;;;;5124300;27;20066;-68
2023/09/11 02:40:42;;;;;;;0.40;0.40;;;21.70;99.90;;;;;;5125749;27;20035;-68
2023/09/11 02:43:07;;;;;;;4.20;1.42;;;21.70;99.90;;;;;;5127826;27;20039;-68
2023/09/11 02:45:33;;;;;;;1.30;0.98;;;21.70;99.90;;;;;;5119125;27;20153;-68
2023/09/11 02:47:59;;;;;;;0.65;0.50;;;21.70;99.90;;;;;;5124548;27;20039;-68
2023/09/11 02:50:24;;;;;;;3.45;3.08;;;21.70;99.90;;;;;;5102305;27;20043;-68
2023/09/11 02:52:50;;;;;;;4.03;1.17;;;21.60;99.90;;;;;;5126396;27;20043;-68
2023/09/11 02:55:15;;;;;;;2.65;0.80;;;21.70;99.90;;;;;;5121811;27;20058;-68
2023/09/11 02:57:41;;;;;;;3.38;1.50;;;21.70;99.90;;;;;;5127692;27;20046;-68
2023/09/11 03:00:10;;;;;;;1.65;1.23;;;21.60;99.90;;;;;;5124316;27;20073;-68
2023/09/11 03:02:36;;;;;;;0.35;0.35;;;21.60;99.90;;;;;;5122745;27;20039;-68
2023/09/11 03:05:02;;;;;;;0.40;0.40;;;21.60;99.90;;;;;;5117499;27;20055;-68
2023/09/11 03:07:27;;;;;;;0.32;0.32;;;21.60;99.90;;;;;;5124104;27;20106;-68
2023/09/11 03:09:53;;;;;;;0.77;0.73;;;21.60;99.90;;;;;;5107756;27;20134;-68
2023/09/11 03:12:19;;;;;;;0.43;0.40;;;21.60;99.90;;;;;;5132966;27;20099;-68
2023/09/11 03:14:44;;;;;;;0.25;0.25;;;21.60;99.90;;;;;;5123028;27;20039;-68
2023/09/11 03:17:12;;;;;;;1.83;1.73;;;21.60;99.90;;;;;;5126286;27;20043;-68
2023/09/11 03:19:37;;;;;;;0.35;0.30;;;21.60;99.90;;;;;;5103887;27;20095;-68
2023/09/11 03:22:03;;;;;;;0.50;0.47;;;21.60;99.90;;;;;;5119139;27;20043;-68
2023/09/11 03:24:29;;;;;;;0.30;0.30;;;21.60;99.90;;;;;;5126260;27;20501;-68
2023/09/11 03:26:54;;;;;;;0.50;0.50;;;21.60;99.90;;;;;;5123666;27;20048;-68
2023/09/11 03:29:20;;;;;;;0.88;0.57;;;21.60;99.90;;;;;;5130622;27;20047;-68
2023/09/11 03:31:46;;;;;;;2.05;1.20;;;21.70;99.90;;;;;;5106912;27;20514;-68
2023/09/11 03:34:12;;;;;;;0.20;0.20;;;21.60;99.90;;;;;;5124113;27;20052;-68
2023/09/11 03:36:37;;;;;;;0.47;0.28;;;21.60;99.90;;;;;;5126684;27;20136;-68
2023/09/11 03:39:03;;;;;;;1.15;0.68;;;21.70;99.90;;;;;;5132295;27;20119;-68
2023/09/11 03:41:29;;;;;;;0.30;0.30;;;21.60;99.90;;;;;;5123324;27;20046;-68
2023/09/11 03:43:55;;;;;;;0.63;0.63;;;21.60;99.90;;;;;;5122369;27;20421;-68
2023/09/11 03:46:21;;;;;;;0.40;0.40;;;21.70;99.90;;;;;;5124352;27;20047;-68
2023/09/11 03:48:47;;;;;;;1.00;0.82;;;21.70;99.90;;;;;;5132355;27;20042;-68
2023/09/11 03:51:13;;;;;;;3.10;2.03;;;21.70;99.90;;;;;;5123076;27;20040;-68
2023/09/11 03:53:42;;;;;;;0.50;0.50;;;21.70;99.90;;;;;;5122118;27;20424;-68
2023/09/11 03:56:17;;;;;;;2.42;1.63;;;21.70;99.90;;;;;;5107386;28;20051;-68
2023/09/11 03:58:46;;;;;;;0.40;0.40;;;21.70;99.90;;;;;;5124988;27;20088;-68
2023/09/11 04:01:12;;;;;;;1.10;0.45;;;21.80;99.90;;;;;;5119890;27;20497;-68
2023/09/11 04:03:37;;;;;;;3.55;3.22;;;21.80;99.90;;;;;;5124221;27;20035;-68
2023/09/11 04:06:03;;;;;;;0.32;0.32;;;21.80;99.90;;;;;;5122063;27;20375;-68
2023/09/11 04:08:28;;;;;;;1.25;0.88;;;21.80;99.90;;;;;;5123357;27;20035;-68
2023/09/11 04:10:54;;;;;;;0.65;0.65;;;21.80;99.90;;;;;;5122949;27;20118;-68
2023/09/11 04:13:19;;;;;;;2.88;0.98;;;21.80;99.90;;;;;;5116725;27;20054;-68
2023/09/11 04:15:45;;;;;;;0.80;0.50;;;21.80;99.90;;;;;;5127640;27;20039;-68
2023/09/11 04:18:11;;;;;;;2.20;2.00;;;21.70;99.90;;;;;;5119669;27;20031;-68
2023/09/11 04:20:36;;;;;;;2.63;0.80;;;21.70;99.90;;;;;;5124635;27;20478;-68
2023/09/11 04:23:03;;;;;;;5.05;1.90;;;21.70;99.90;;;;;;5121019;27;20130;-68
2023/09/11 04:25:29;;;;;;;0.20;0.20;;;21.70;99.90;;;;;;5127759;27;20051;-68
2023/09/11 04:27:55;;;;;;;1.88;0.98;;;21.70;99.90;;;;;;5124925;27;20043;-68
2023/09/11 04:30:22;;;;;;;0.75;0.75;;;21.70;99.90;;;;;;5124344;27;20111;-68
2023/09/11 04:32:48;;;;;;;0.00;0.00;;;21.60;99.90;;;;;;5122041;27;20054;-68
2023/09/11 04:35:14;;;;;;;0.47;0.45;;;21.60;99.90;;;;;;5123822;27;20043;-68
2023/09/11 04:37:39;;;;;;;1.65;1.25;;;21.60;99.90;;;;;;5127034;27;20071;-68
2023/09/11 04:40:05;;;;;;;1.55;1.45;;;21.60;99.90;;;;;;5122841;27;20119;-68
2023/09/11 04:42:31;;;;;;;23.85;1.27;;;21.60;99.90;;;;;;5122174;27;20039;-68
2023/09/11 04:45:00;;;;;;;5.68;1.58;;;21.60;99.90;;;;;;5119953;27;20039;-68
2023/09/11 04:47:30;;;;;;;0.40;0.40;;;21.60;99.90;;;;;;5123800;27;20372;-68
2023/09/11 04:49:56;;;;;;;0.63;0.63;;;21.60;99.90;;;;;;5125243;27;20040;-68
2023/09/11 04:52:21;;;;;;;2.25;1.60;;;21.60;99.90;;;;;;5122966;27;20058;-68
2023/09/11 04:54:47;;;;;;;0.50;0.50;;;21.50;99.90;;;;;;5117282;27;20039;-68
2023/09/11 04:57:12;;;;;;;6.72;0.85;;;21.40;99.90;;;;;;5123954;27;20047;-68
2023/09/11 04:59:38;;;;;;;9.77;1.58;;;21.40;99.90;;;;;;5122353;27;20035;-68
2023/09/11 05:02:04;;;;;;;8.10;1.45;;;21.40;99.90;;;;;;5096720;28;20043;-68
2023/09/11 05:04:29;;;;;;;2.47;1.08;;;21.40;99.90;;;;;;5122206;27;20471;-68
2023/09/11 05:06:55;;;;;;;1.73;1.58;;;21.50;99.90;;;;;;5109971;27;20043;-68
2023/09/11 05:09:20;;;;;;;0.32;0.32;;;21.40;99.90;;;;;;5121406;27;20031;-68
2023/09/11 05:11:46;;;;;;;0.75;0.75;;;21.40;99.90;;;;;;5123740;27;20479;-68
2023/09/11 05:14:12;;;;;;;0.50;0.50;;;21.30;99.90;;;;;;5116663;27;20039;-68
2023/09/11 05:16:38;;;;;;;0.52;0.47;;;21.40;99.90;;;;;;5120881;27;20040;-68
2023/09/11 05:19:03;;;;;;;1.38;1.08;;;21.30;99.90;;;;;;5124767;27;20046;-68
2023/09/11 05:21:30;;;;;;;0.20;0.20;;;21.30;99.90;;;;;;5122745;27;20810;-68
2023/09/11 05:23:55;;;;;;;2.78;1.45;;;21.30;99.90;;;;;;5125467;27;20117;-68
2023/09/11 05:26:21;;;;;;;3.25;0.47;;;21.20;99.90;;;;;;5123103;27;20550;-68
2023/09/11 05:28:47;;;;;;;0.88;0.88;;;21.30;99.90;;;;;;5124654;27;20046;-68
2023/09/11 05:31:12;;;;;;;0.40;0.40;;;21.30;99.90;;;;;;5120802;27;20110;-68
2023/09/11 05:33:38;;;;;;;4.10;1.75;;;21.20;99.90;;;;;;5119363;27;20159;-68
2023/09/11 05:36:05;;;;;;;1.23;0.93;;;21.30;99.90;;;;;;5120622;27;20044;-68
2023/09/11 05:38:30;;;;;;;1.23;1.13;;;21.30;99.90;;;;;;5114356;27;20035;-68
2023/09/11 05:40:56;;;;;;;0.52;0.30;;;21.20;99.90;;;;;;5120961;27;20531;-68
2023/09/11 05:43:22;;;;;;;3.50;1.13;;;21.30;99.90;;;;;;5121495;27;20061;-68
2023/09/11 05:45:47;;;;;;;0.17;0.17;;;21.30;99.90;;;;;;5132046;27;20035;-68
2023/09/11 05:48:13;;;;;;;0.25;0.25;;;21.30;99.90;;;;;;5123989;27;20100;-68
2023/09/11 05:50:38;;;;;;;0.47;0.47;;;21.30;99.90;;;;;;5120593;27;20514;-68
2023/09/11 05:53:06;;;;;;;1.08;0.77;;;21.40;99.90;;;;;;5099956;28;20039;-68
2023/09/11 05:55:35;;;;;;;0.75;0.75;;;21.40;99.90;;;;;;5099261;28;20054;-68
2023/09/11 05:58:01;;;;;;;0.93;0.90;;;21.40;99.90;;;;;;5123210;27;20070;-68
2023/09/11 06:00:27;;;;;;;1.58;1.48;;;21.40;99.90;;;;;;5124062;28;20074;-68
2023/09/11 06:02:53;;;;;;;1.58;1.33;;;21.50;99.90;;;;;;5121081;28;20522;-68
2023/09/11 06:05:20;;;;;;;1.00;0.98;;;21.40;99.90;;;;;;5118272;28;20457;-68
2023/09/11 06:07:46;;;;;;;1.48;0.35;;;21.40;99.90;;;;;;5111283;28;20070;-68
2023/09/11 06:10:15;;;;;;;0.70;0.52;;;21.50;99.90;;;;;;5121000;28;20474;-68
2023/09/11 06:12:41;;;;;;;2.28;1.70;;;21.40;99.90;;;;;;5121388;28;20538;-68
2023/09/11 06:15:07;;;;;;;0.45;0.45;;;21.50;99.90;;;;;;5121648;28;20126;-67
2023/09/11 06:17:33;;;;;;;0.45;0.40;;;21.50;99.90;;;;;;5116078;28;20054;-68
2023/09/11 06:19:59;;;;;;;0.40;0.40;;;21.50;99.90;;;;;;5128125;28;20035;-68
2023/09/11 06:22:25;;;;;;;2.42;0.82;;;21.60;99.90;;;;;;5112927;28;20047;-68
2023/09/11 06:24:50;;;;;;;5.25;1.30;;;21.70;99.90;;;;;;5123547;28;20047;-68
2023/09/11 06:27:16;;;;;;;1.00;0.95;;;21.70;99.90;;;;;;5119622;28;20047;-68
2023/09/11 06:29:41;;;;;;;0.13;0.13;;;21.70;99.90;;;;;;5120673;28;20047;-68
2023/09/11 06:32:07;;;;;;;0.10;0.10;;;21.80;99.90;;;;;;5128379;28;20070;-68
2023/09/11 06:34:34;;;;;;;0.22;0.22;;;21.80;99.90;;;;;;5123204;28;20047;-68
2023/09/11 06:36:59;;;;;;;3.22;0.98;;;21.80;99.90;;;;;;5123599;28;20049;-68
2023/09/11 06:39:25;;;;;;;0.47;0.40;;;21.90;99.90;;;;;;5112917;28;20136;-68
2023/09/11 06:41:51;;;;;;;0.40;0.40;;;21.90;99.90;;;;;;5101243;28;20479;-68
2023/09/11 06:44:17;;;;;;;0.75;0.73;;;22.00;99.90;;;;;;5123515;28;20039;-68
2023/09/11 06:46:42;;;;;;;0.28;0.28;;;22.00;99.90;;;;;;5120436;28;20047;-68
2023/09/11 06:49:08;;;;;;;0.77;0.77;;;22.00;99.90;;;;;;5117588;28;20040;-68
2023/09/11 06:51:34;;;;;;;0.35;0.35;;;22.10;99.90;;;;;;5123055;28;20044;-68
2023/09/11 06:54:01;;;;;;;1.75;1.08;;;22.20;99.90;;;;;;5122864;28;20389;-68
2023/09/11 06:56:26;;;;;;;0.40;0.40;;;22.20;99.90;;;;;;5121003;28;20139;-68
2023/09/11 06:58:52;;;;;;;0.30;0.30;;;22.20;99.90;;;;;;5103333;28;20051;-68
2023/09/11 07:01:17;;;;;;;1.00;0.90;;;22.20;99.90;;;;;;5122451;28;20051;-68
2023/09/11 07:03:45;;;;;;;2.13;1.65;;;22.20;99.90;;;;;;5120866;28;20397;-68
2023/09/11 07:06:12;;;;;;;0.38;0.30;;;22.20;99.90;;;;;;5096131;28;20043;-68
2023/09/11 07:08:37;;;;;;;0.35;0.35;;;22.20;99.90;;;;;;5124744;27;20130;-68
2023/09/11 07:11:03;;;;;;;0.50;0.20;;;22.20;99.90;;;;;;5124028;27;20119;-68
2023/09/11 07:13:29;;;;;;;0.43;0.43;;;22.20;99.90;;;;;;5123652;27;20468;-68
2023/09/11 07:15:56;;;;;;;1.25;1.08;;;22.20;99.90;;;;;;5120415;27;20449;-68
2023/09/11 07:18:22;;;;;;;0.93;0.88;;;22.30;99.90;;;;;;5128290;27;20035;-68
2023/09/11 07:20:48;;;;;;;0.38;0.38;;;22.30;99.90;;;;;;5124089;27;20039;-68
2023/09/11 07:23:13;;;;;;;2.13;0.90;;;22.40;99.90;;;;;;5125360;27;20047;-68
2023/09/11 07:25:39;;;;;;;0.80;0.80;;;22.40;99.90;;;;;;5130652;27;20038;-68
2023/09/11 07:28:06;;;;;;;2.35;2.15;;;22.50;99.90;;;;;;5125569;27;20039;-68
2023/09/11 07:30:31;;;;;;;7.78;0.70;;;22.50;99.90;;;;;;5125776;27;20035;-68
2023/09/11 07:32:57;;;;;;;0.75;0.75;;;22.50;99.90;;;;;;5123701;27;20046;-68
2023/09/11 07:35:23;;;;;;;0.65;0.60;;;22.50;99.90;;;;;;5126738;27;20129;-68
2023/09/11 07:37:48;;;;;;;1.38;1.13;;;22.50;99.90;;;;;;5125955;27;20118;-68
2023/09/11 07:40:14;;;;;;;0.57;0.57;;;22.60;99.90;;;;;;5106471;27;20061;-68
2023/09/11 07:42:40;;;;;;;0.20;0.20;;;22.60;99.90;;;;;;5118425;27;20031;-68
2023/09/11 07:45:06;;;;;;;1.48;0.93;;;22.70;99.90;;;;;;5125816;27;20031;-68
2023/09/11 07:47:32;;;;;;;0.60;0.60;;;22.80;99.90;;;;;;5098089;27;20047;-68
2023/09/11 07:49:57;;;;;;;1.27;1.17;;;22.90;99.90;;;;;;5123731;27;20035;-68
2023/09/11 07:52:23;;;;;;;0.82;0.30;;;22.90;99.90;;;;;;5124219;27;20051;-69
2023/09/11 07:54:49;;;;;;;1.10;1.10;;;23.00;99.90;;;;;;5117591;27;20035;-68
2023/09/11 07:57:14;;;;;;;0.75;0.65;;;23.10;99.90;;;;;;5122607;27;20051;-68
2023/09/11 07:59:40;;;;;;;19.27;1.67;;;23.20;99.90;;;;;;5125425;27;20043;-68
2023/09/11 08:02:06;;;;;;;0.60;0.60;;;23.20;99.90;;;;;;5123402;27;20035;-68
2023/09/11 08:04:32;;;;;;;4.43;3.28;;;23.30;99.90;;;;;;5121986;27;20047;-68
2023/09/11 08:06:58;;;;;;;0.65;0.65;;;23.40;99.90;;;;;;5126176;27;20039;-68
2023/09/11 08:09:24;;;;;;;1.42;1.08;;;23.40;99.90;;;;;;5126018;27;20043;-67
2023/09/11 08:11:49;;;;;;;1.05;0.82;;;23.50;99.90;;;;;;5123957;27;20478;-68
2023/09/11 08:14:16;;;;;;;3.22;1.58;;;23.50;99.90;;;;;;5128823;27;20038;-68
2023/09/11 08:16:42;;;;;;;0.40;0.40;;;23.60;99.90;;;;;;5125221;27;20044;-68
2023/09/11 08:19:09;;;;;;;1.25;0.65;;;23.70;99.90;;;;;;5121537;27;20031;-68
2023/09/11 08:21:34;;;;;;;1.95;0.77;;;23.70;99.90;;;;;;5122592;27;20051;-68
2023/09/11 08:24:00;;;;;;;0.45;0.30;;;23.70;99.90;;;;;;5103858;27;20159;-68
2023/09/11 08:26:26;;;;;;;1.23;0.95;;;23.80;99.90;;;;;;5124910;27;20126;-68
2023/09/11 08:28:51;;;;;;;2.42;1.08;;;23.80;99.90;;;;;;5125458;27;20055;-68
2023/09/11 08:31:17;;;;;;;3.08;0.80;;;23.90;99.90;;;;;;5116292;27;20039;-68
2023/09/11 08:33:43;;;;;;;1.42;0.80;;;24.00;99.90;;;;;;5126025;27;20043;-68
2023/09/11 08:36:09;;;;;;;1.10;1.02;;;24.00;99.90;;;;;;5129862;27;20039;-68
2023/09/11 08:38:35;;;;;;;2.00;0.82;;;24.00;99.90;;;;;;5125693;27;20028;-68
2023/09/11 08:41:04;;;;;;;1.15;0.98;;;24.10;99.90;;;;;;5124942;27;20546;-68
2023/09/11 08:43:30;;;;;;;5.20;2.83;;;24.20;99.90;;;;;;5120851;27;20040;-68
2023/09/11 08:45:56;;;;;;;0.47;0.47;;;24.40;99.90;;;;;;5119723;27;20047;-68
2023/09/11 08:48:28;;;;;;;0.95;0.95;;;24.50;99.90;;;;;;5123002;27;20044;-68
2023/09/11 08:51:02;;;;;;;1.25;1.15;;;24.60;99.90;;;;;;5125082;27;20047;-68
2023/09/11 08:53:29;;;;;;;7.82;1.67;;;24.90;99.90;;;;;;5116785;27;20503;-68
2023/09/11 08:55:56;;;;;;;2.65;1.08;;;25.20;99.90;;;;;;5125336;27;20376;-68
2023/09/11 08:58:23;;;;;;;4.13;1.17;;;25.50;99.90;;;;;;5122335;27;20047;-68
2023/09/11 09:00:49;;;;;;;3.25;0.70;;;25.70;99.90;;;;;;5124243;27;20031;-68
2023/09/11 09:03:16;;;;;;;1.23;1.13;;;26.20;99.90;;;;;;5121557;27;20175;-68
2023/09/11 09:05:42;;;;;;;1.85;1.20;;;26.80;99.90;;;;;;5123652;27;20046;-69
2023/09/11 09:08:12;;;;;;;5.32;2.42;;;27.40;99.90;;;;;;5124189;27;20351;-69
2023/09/11 09:10:41;;;;;;;3.60;1.42;;;27.90;99.90;;;;;;5121079;27;20068;-69
2023/09/11 09:13:08;;;;;;;2.58;1.40;;;28.30;99.90;;;;;;5121479;27;20050;-70
2023/09/11 09:15:40;;;;;;;1.00;0.85;;;28.40;99.90;;;;;;5119656;27;20551;-69
2023/09/11 09:18:06;;;;;;;1.25;1.15;;;28.70;99.90;;;;;;5121797;27;20042;-69
2023/09/11 09:20:32;;;;;;;1.38;0.70;;;28.70;99.90;;;;;;5122772;27;20043;-69
2023/09/11 09:22:59;;;;;;;0.20;0.20;;;28.70;99.90;;;;;;5115777;27;20143;-69
2023/09/11 09:25:26;;;;;;;6.22;2.20;;;29.00;99.90;;;;;;5122444;27;20048;-69
2023/09/11 09:27:52;;;;;;;1.55;1.20;;;29.10;99.90;;;;;;5122068;27;20487;-69
2023/09/11 09:30:22;;;;;;;1.55;1.27;;;29.10;99.90;;;;;;5101217;28;20047;-68
2023/09/11 09:32:49;;;;;;;1.85;0.63;;;29.20;99.90;;;;;;5127363;27;20131;-69
2023/09/11 09:35:21;;;;;;;0.80;0.68;;;29.30;99.90;;;;;;5121521;27;20055;-69
2023/09/11 09:37:55;;;;;;;0.20;0.10;;;29.40;99.90;;;;;;5102558;28;20046;-69
2023/09/11 09:40:37;;;;;;;0.20;0.20;;;29.50;99.90;;;;;;5125711;27;20090;-69
2023/09/11 09:43:05;;;;;;;0.45;0.38;;;29.60;99.90;;;;;;5106626;27;20144;-69
2023/09/11 09:45:39;;;;;;;1.02;0.82;;;29.90;99.90;;;;;;5102695;28;20372;-69
2023/09/11 09:48:25;;;;;;;0.35;0.30;;;29.70;99.90;;;;;;5121202;27;20052;-69
2023/09/11 09:51:01;;;;;;;8.20;2.08;;;30.10;99.90;;;;;;5114349;27;20122;-69
2023/09/11 09:53:41;;;;;;;5.00;0.70;;;30.10;99.90;;;;;;5108907;28;20051;-69
2023/09/11 09:56:08;;;;;;;5.28;1.63;;;30.10;99.90;;;;;;5120893;28;20043;-69
2023/09/11 09:58:39;;;;;;;0.00;0.00;;;30.10;99.90;;;;;;5121825;27;20082;-69
2023/09/11 10:01:08;;;;;;;0.45;0.45;;;30.30;99.90;;;;;;5117373;27;20043;-69
2023/09/11 10:03:45;;;;;;;1.02;0.75;;;30.40;99.90;;;;;;5121498;27;20040;-69
2023/09/11 10:06:15;;;;;;;1.35;0.55;;;30.60;99.90;;;;;;5123768;27;20054;-69
2023/09/11 10:08:40;;;;;;;0.38;0.38;;;30.30;99.90;;;;;;5113033;28;20048;-69
2023/09/11 10:11:06;;;;;;;0.10;0.10;;;30.10;99.90;;;;;;5115750;28;20035;-69
2023/09/11 10:13:34;;;;;;;0.50;0.50;;;30.00;99.90;;;;;;5116705;28;20059;-69
2023/09/11 10:16:01;;;;;;;1.33;1.08;;;29.80;99.90;;;;;;5100299;28;20047;-69
2023/09/11 10:18:31;;;;;;;6.50;1.27;;;29.70;99.90;;;;;;5128546;28;20039;-69
2023/09/11 10:20:58;;;;;;;0.90;0.57;;;29.50;99.90;;;;;;5123283;28;20134;-69
2023/09/11 10:23:24;;;;;;;0.40;0.40;;;29.50;99.90;;;;;;5119834;28;20043;-69
2023/09/11 10:25:56;;;;;;;0.35;0.35;;;29.50;99.90;;;;;;5119931;28;20050;-69
2023/09/11 10:29:02;;;;;;;0.43;0.15;;;29.50;99.90;;;;;;5120890;28;20529;-69
2023/09/11 10:31:33;;;;;;;1.80;1.67;;;29.30;99.90;;;;;;5120467;28;20104;-69
2023/09/11 10:34:01;;;;;;;0.35;0.35;;;29.30;99.90;;;;;;5100073;28;20047;-69
2023/09/11 10:36:33;;;;;;;0.10;0.00;;;29.00;99.90;;;;;;5124324;28;20051;-69
2023/09/11 10:39:00;;;;;;;0.35;0.28;;;29.00;99.90;;;;;;5119667;28;20123;-69
2023/09/11 10:41:27;;;;;;;0.03;0.03;;;29.10;99.90;;;;;;5124198;27;20057;-69
2023/09/11 10:43:53;;;;;;;0.40;0.40;;;29.00;99.90;;;;;;5129293;27;20054;-69
2023/09/11 10:46:21;;;;;;;0.57;0.57;;;29.10;99.90;;;;;;5124693;27;20040;-69
2023/09/11 10:48:47;;;;;;;0.20;0.20;;;29.00;99.90;;;;;;5124018;27;20067;-69
2023/09/11 10:51:14;;;;;;;0.25;0.25;;;29.00;99.90;;;;;;5134416;27;20043;-68
2023/09/11 10:53:40;;;;;;;0.00;0.00;;;29.00;99.90;;;;;;5119867;27;20047;-69
2023/09/11 10:56:07;;;;;;;0.10;0.10;;;29.10;99.90;;;;;;5123956;27;20039;-69
2023/09/11 10:58:34;;;;;;;0.28;0.28;;;29.20;99.90;;;;;;5125705;27;20069;-68
2023/09/11 11:01:00;;;;;;;0.45;0.35;;;29.20;99.90;;;;;;5118829;27;20083;-68
2023/09/11 11:03:28;;;;;;;0.32;0.32;;;29.30;99.90;;;;;;5124185;27;20131;-68
2023/09/11 11:05:54;;;;;;;1.02;0.65;;;29.20;99.90;;;;;;5127584;27;20145;-68
2023/09/11 11:08:20;;;;;;;1.35;1.23;;;29.10;99.90;;;;;;5107649;28;20467;-68
2023/09/11 11:10:47;;;;;;;0.52;0.32;;;29.30;99.90;;;;;;5125210;27;20046;-68
2023/09/11 11:13:13;;;;;;;1.15;0.95;;;29.40;99.90;;;;;;5125266;27;20035;-68
2023/09/11 11:15:39;;;;;;;0.22;0.15;;;29.40;99.90;;;;;;5128324;27;20126;-68
2023/09/11 11:18:25;;;;;;;0.10;0.10;;;29.50;99.90;;;;;;5123652;27;20044;-68
2023/09/11 11:21:00;;;;;;;0.10;0.10;;;29.70;99.90;;;;;;5123054;27;20036;-68
2023/09/11 11:23:28;;;;;;;1.10;1.02;;;29.80;99.90;;;;;;5121418;27;20054;-68
2023/09/11 11:25:54;;;;;;;0.38;0.38;;;29.60;99.90;;;;;;5128701;27;20458;-69
2023/09/11 11:28:22;;;;;;;0.25;0.25;;;29.60;99.90;;;;;;5121285;27;20118;-68
2023/09/11 11:30:53;;;;;;;0.52;0.52;;;29.80;99.90;;;;;;5110282;27;20039;-68
2023/09/11 11:33:24;;;;;;;0.10;0.10;;;29.90;99.90;;;;;;5123242;27;20522;-68
2023/09/11 11:35:52;;;;;;;2.47;1.50;;;30.10;99.90;;;;;;5122992;27;20058;-69
2023/09/11 11:38:19;;;;;;;0.45;0.28;;;29.90;99.90;;;;;;5129558;27;20043;-68
2023/09/11 11:40:46;;;;;;;0.20;0.20;;;29.80;99.90;;;;;;5122838;27;20073;-68
2023/09/11 11:43:11;;;;;;;0.73;0.70;;;29.90;99.90;;;;;;5124149;27;20047;-68
2023/09/11 11:45:41;;;;;;;1.55;1.45;;;29.80;99.90;;;;;;5128921;27;20159;-68
2023/09/11 11:48:10;;;;;;;3.35;1.20;;;29.90;99.90;;;;;;5123082;27;20035;-68
2023/09/11 11:50:35;;;;;;;0.63;0.60;;;29.90;99.90;;;;;;5122212;27;20466;-68
2023/09/11 11:53:04;;;;;;;0.22;0.22;;;30.10;99.90;;;;;;5113750;27;20043;-68
2023/09/11 11:55:30;;;;;;;0.68;0.38;;;30.30;99.90;;;;;;5124612;27;20049;-68
2023/09/11 11:57:56;;;;;;;1.25;0.52;;;30.40;99.90;;;;;;5114532;27;20118;-68
2023/09/11 12:00:22;;;;;;;0.10;0.10;;;30.40;99.90;;;;;;5124467;27;20095;-69
2023/09/11 12:02:47;;;;;;;4.40;1.25;;;30.60;99.90;;;;;;5123082;27;20039;-68
2023/09/11 12:05:14;;;;;;;0.70;0.60;;;30.70;99.90;;;;;;5121044;27;20064;-68
2023/09/11 12:07:40;;;;;;;1.45;0.65;;;30.60;99.90;;;;;;5106073;27;20047;-69
2023/09/11 12:10:10;;;;;;;0.10;0.10;;;30.70;99.90;;;;;;5107347;27;20031;-68
2023/09/11 12:12:42;;;;;;;1.77;1.67;;;30.90;99.90;;;;;;5125736;27;20111;-68
2023/09/11 12:15:10;;;;;;;0.30;0.30;;;30.80;99.90;;;;;;5125484;27;20039;-69
2023/09/11 12:17:43;;;;;;;0.05;0.05;;;30.70;99.90;;;;;;5122412;27;20127;-69
2023/09/11 12:20:13;;;;;;;1.05;0.95;;;30.40;99.90;;;;;;5121994;27;20035;-69
2023/09/11 12:22:42;;;;;;;0.80;0.40;;;30.50;99.90;;;;;;5124015;27;20071;-69
2023/09/11 12:25:07;;;;;;;0.20;0.20;;;30.50;99.90;;;;;;5117779;27;20043;-69
2023/09/11 12:27:35;;;;;;;0.50;0.50;;;30.60;99.90;;;;;;5122929;27;20047;-68
2023/09/11 12:30:04;;;;;;;0.10;0.05;;;30.40;99.90;;;;;;5130107;27;20546;-69
2023/09/11 12:32:30;;;;;;;0.32;0.32;;;30.60;99.90;;;;;;5117956;27;20059;-69
2023/09/11 12:34:56;;;;;;;2.90;1.02;;;30.50;99.90;;;;;;5107648;27;20456;-69
2023/09/11 12:37:23;;;;;;;0.25;0.25;;;30.70;99.90;;;;;;5122677;27;20047;-68
2023/09/11 12:39:49;;;;;;;0.22;0.22;;;30.40;99.90;;;;;;5121413;27;20495;-69
2023/09/11 12:42:15;;;;;;;0.90;0.52;;;30.50;99.90;;;;;;5115670;27;20051;-69
2023/09/11 12:44:41;;;;;;;0.25;0.25;;;30.50;99.90;;;;;;5124750;27;20027;-69